createdAt,value
2023-05-11T00:00:52.531Z,100669.15
2023-05-11T00:03:19.296Z,100667.25
2023-05-11T00:05:49.517Z,100668.46
2023-05-11T00:08:17.335Z,100670.25
2023-05-11T00:10:47.893Z,100671.48
2023-05-11T00:13:14.634Z,100668.88
2023-05-11T00:15:41.706Z,100668.88
2023-05-11T00:18:08.477Z,100667.12
2023-05-11T00:20:35.230Z,100666.80
2023-05-11T00:23:02.557Z,100668.02
2023-05-11T00:25:29.230Z,100667.64
2023-05-11T00:27:55.841Z,100668.85
2023-05-11T00:30:22.632Z,100667.02
2023-05-11T00:32:52.236Z,100666.42
2023-05-11T00:35:19.056Z,100669.77
2023-05-11T00:37:45.989Z,100665.98
2023-05-11T00:40:13.007Z,100667.34
2023-05-11T00:42:40.417Z,100666.13
2023-05-11T00:45:07.461Z,100667.52
2023-05-11T00:47:34.095Z,100667.01
2023-05-11T00:50:00.841Z,100669.09
2023-05-11T00:52:27.450Z,100667.05
2023-05-11T00:54:54.183Z,100669.52
2023-05-11T00:57:21.461Z,100667.13
2023-05-11T00:59:49.408Z,100668.72
2023-05-11T01:02:16.155Z,100669.74
2023-05-11T01:04:42.867Z,100673.52
2023-05-11T01:07:15.855Z,100676.83
2023-05-11T01:09:51.665Z,100670.12
2023-05-11T01:12:34.786Z,100674.14
2023-05-11T01:15:09.200Z,100675.54
2023-05-11T01:18:08.264Z,100672.77
2023-05-11T01:20:35.042Z,100675.23
2023-05-11T01:23:15.318Z,100675.60
2023-05-11T01:26:11.572Z,100675.11
2023-05-11T01:29:17.019Z,100677.69
2023-05-11T01:31:46.913Z,100679.34
2023-05-11T01:34:17.687Z,100677.52
2023-05-11T01:36:51.810Z,100678.84
2023-05-11T01:39:26.824Z,100680.59
2023-05-11T01:41:54.439Z,100682.64
2023-05-11T01:44:21.302Z,100681.08
2023-05-11T01:46:47.885Z,100680.95
2023-05-11T01:49:14.470Z,100676.14
2023-05-11T01:51:41.073Z,100677.92
2023-05-11T01:54:08.651Z,100679.00
2023-05-11T01:56:35.509Z,100684.92
2023-05-11T01:59:02.138Z,100682.33
2023-05-11T02:01:29.213Z,100679.04
2023-05-11T02:03:55.918Z,100678.70
2023-05-11T02:06:22.709Z,100678.55
2023-05-11T02:08:49.649Z,100678.88
2023-05-11T02:11:16.305Z,100678.86
2023-05-11T02:13:44.655Z,100679.03
2023-05-11T02:16:11.468Z,100681.28
2023-05-11T02:18:41.492Z,100687.01
2023-05-11T02:21:09.131Z,100690.98
2023-05-11T02:23:36.802Z,100689.42
2023-05-11T02:26:03.986Z,100690.45
2023-05-11T02:28:30.571Z,100690.77
2023-05-11T02:31:00.527Z,100695.45
2023-05-11T02:33:31.237Z,100693.54
2023-05-11T02:35:57.929Z,100691.67
2023-05-11T02:38:30.797Z,100692.02
2023-05-11T02:40:59.039Z,100696.36
2023-05-11T02:43:26.132Z,100700.34
2023-05-11T02:46:00.778Z,100703.42
2023-05-11T02:48:29.173Z,100703.76
2023-05-11T02:50:56.323Z,100703.04
2023-05-11T02:53:26.299Z,100702.53
2023-05-11T02:55:53.613Z,100702.57
2023-05-11T02:58:20.577Z,100702.41
2023-05-11T03:00:50.440Z,100702.94
2023-05-11T03:03:17.397Z,100703.27
2023-05-11T03:05:44.246Z,100704.84
2023-05-11T03:08:10.831Z,100705.00
2023-05-11T03:10:37.621Z,100704.33
2023-05-11T03:13:04.232Z,100706.89
2023-05-11T03:15:31.234Z,100710.67
2023-05-11T03:17:59.222Z,100712.71
2023-05-11T03:20:25.872Z,100717.52
2023-05-11T03:22:52.510Z,100718.52
2023-05-11T03:25:19.422Z,100717.77
2023-05-11T03:27:46.431Z,100720.15
2023-05-11T03:30:13.995Z,100721.20
2023-05-11T03:32:43.342Z,100723.80
2023-05-11T03:35:10.024Z,100722.89
2023-05-11T03:37:38.304Z,100724.06
2023-05-11T03:40:06.671Z,100730.61
2023-05-11T03:42:39.146Z,100726.95
2023-05-11T03:45:06.912Z,100732.66
2023-05-11T03:47:33.679Z,100732.30
2023-05-11T03:50:01.032Z,100739.18
2023-05-11T03:52:27.670Z,100738.83
2023-05-11T03:54:54.367Z,100737.21
2023-05-11T03:57:21.020Z,100739.42
2023-05-11T03:59:47.776Z,100740.79
2023-05-11T04:02:14.464Z,100741.66
2023-05-11T04:04:41.212Z,100741.83
2023-05-11T04:07:07.966Z,100744.70
2023-05-11T04:09:34.754Z,100746.36
2023-05-11T04:12:01.344Z,100743.64
2023-05-11T04:14:28.529Z,100745.43
2023-05-11T04:16:55.155Z,100744.40
2023-05-11T04:19:21.756Z,100747.50
2023-05-11T04:21:48.356Z,100749.38
2023-05-11T04:24:15.006Z,100752.13
2023-05-11T04:26:41.651Z,100753.16
2023-05-11T04:29:09.786Z,100753.54
2023-05-11T04:31:36.502Z,100760.33
2023-05-11T04:34:07.363Z,100759.30
2023-05-11T04:36:34.940Z,100762.66
2023-05-11T04:39:01.808Z,100763.27
2023-05-11T04:41:28.655Z,100763.29
2023-05-11T04:43:57.819Z,100761.92
2023-05-11T04:46:24.526Z,100759.34
2023-05-11T04:48:51.377Z,100757.46
2023-05-11T04:51:18.029Z,100757.67
2023-05-11T04:53:45.028Z,100754.94
2023-05-11T04:56:12.616Z,100755.08
2023-05-11T04:58:39.232Z,100756.91
2023-05-11T05:01:05.986Z,100758.59
2023-05-11T05:03:32.634Z,100757.63
2023-05-11T05:05:59.269Z,100761.44
2023-05-11T05:08:26.036Z,100767.92
2023-05-11T05:10:52.683Z,100769.89
2023-05-11T05:13:19.613Z,100769.30
2023-05-11T05:15:46.316Z,100765.29
2023-05-11T05:18:14.295Z,100766.84
2023-05-11T05:20:42.974Z,100766.45
2023-05-11T05:23:09.582Z,100765.53
2023-05-11T05:25:36.155Z,100767.55
2023-05-11T05:28:02.752Z,100767.23
2023-05-11T05:30:29.801Z,100769.39
2023-05-11T05:32:56.786Z,100770.83
2023-05-11T05:35:24.885Z,100773.31
2023-05-11T05:37:51.648Z,100773.05
2023-05-11T05:40:18.634Z,100774.88
2023-05-11T05:42:48.104Z,100768.89
2023-05-11T05:45:19.249Z,100768.48
2023-05-11T05:47:46.461Z,100769.55
2023-05-11T05:50:13.883Z,100768.61
2023-05-11T05:52:41.891Z,100772.11
2023-05-11T05:55:08.898Z,100771.17
2023-05-11T05:57:35.918Z,100771.31
2023-05-11T06:00:03.556Z,100769.11
2023-05-11T06:02:39.631Z,100769.98
2023-05-11T06:05:07.715Z,100770.97
2023-05-11T06:07:34.472Z,100772.37
2023-05-11T06:10:01.106Z,100767.16
2023-05-11T06:12:28.961Z,100772.23
2023-05-11T06:14:55.787Z,100773.98
2023-05-11T06:17:22.695Z,100774.79
2023-05-11T06:19:50.119Z,100772.20
2023-05-11T06:22:17.114Z,100776.64
2023-05-11T06:24:43.766Z,100777.52
2023-05-11T06:27:10.538Z,100773.73
2023-05-11T06:29:38.216Z,100773.12
2023-05-11T06:32:06.261Z,100775.66
2023-05-11T06:34:33.486Z,100772.98
2023-05-11T06:37:01.102Z,100773.73
2023-05-11T06:39:27.776Z,100774.76
2023-05-11T06:41:56.305Z,100777.41
2023-05-11T06:44:23.912Z,100776.30
2023-05-11T06:46:52.752Z,100775.30
2023-05-11T06:49:19.589Z,100772.89
2023-05-11T06:51:46.344Z,100770.80
2023-05-11T06:54:12.922Z,100773.17
2023-05-11T06:56:39.657Z,100770.08
2023-05-11T06:59:06.914Z,100767.54
2023-05-11T07:01:33.647Z,100769.31
2023-05-11T07:04:00.628Z,100766.21
2023-05-11T07:06:27.814Z,100767.60
2023-05-11T07:08:54.482Z,100766.16
2023-05-11T07:11:22.448Z,100767.11
2023-05-11T07:13:49.273Z,100764.31
2023-05-11T07:16:16.137Z,100765.75
2023-05-11T07:18:42.905Z,100766.58
2023-05-11T07:21:09.649Z,100768.11
2023-05-11T07:23:36.270Z,100769.39
2023-05-11T07:26:08.852Z,100764.39
2023-05-11T07:28:38.533Z,100764.89
2023-05-11T07:31:05.435Z,100763.89
2023-05-11T07:33:34.684Z,100762.50
2023-05-11T07:36:01.436Z,100756.87
2023-05-11T07:38:28.159Z,100755.23
2023-05-11T07:40:54.797Z,100753.83
2023-05-11T07:43:21.401Z,100755.72
2023-05-11T07:45:48.098Z,100756.52
2023-05-11T07:48:15.190Z,100753.94
2023-05-11T07:50:42.734Z,100745.42
2023-05-11T07:53:09.651Z,100741.68
2023-05-11T07:55:36.518Z,100738.48
2023-05-11T07:58:03.143Z,100741.90
2023-05-11T08:00:29.774Z,100740.60
2023-05-11T08:02:56.884Z,100732.73
2023-05-11T08:05:23.986Z,100731.21
2023-05-11T08:07:50.849Z,100732.13
2023-05-11T08:10:17.652Z,100730.21
2023-05-11T08:12:44.306Z,100728.54
2023-05-11T08:15:11.643Z,100726.27
2023-05-11T08:17:38.433Z,100730.88
2023-05-11T08:20:06.775Z,100730.98
2023-05-11T08:22:33.485Z,100727.55
2023-05-11T08:25:00.212Z,100728.13
2023-05-11T08:27:26.800Z,100729.02
2023-05-11T08:29:53.410Z,100727.11
2023-05-11T08:32:20.018Z,100737.84
2023-05-11T08:34:46.938Z,100733.95
2023-05-11T08:37:13.752Z,100730.93
2023-05-11T08:39:47.228Z,100733.25
2023-05-11T08:42:18.044Z,100732.16
2023-05-11T08:44:44.712Z,100732.15
2023-05-11T08:47:22.685Z,100728.96
2023-05-11T08:49:52.630Z,100728.59
2023-05-11T08:52:19.352Z,100728.81
2023-05-11T08:54:47.149Z,100730.97
2023-05-11T08:57:14.135Z,100728.41
2023-05-11T08:59:42.215Z,100729.30
2023-05-11T09:02:10.846Z,100729.23
2023-05-11T09:04:37.558Z,100734.90
2023-05-11T09:07:04.344Z,100736.45
2023-05-11T09:09:31.218Z,100734.55
2023-05-11T09:11:58.798Z,100731.98
2023-05-11T09:14:27.674Z,100734.77
2023-05-11T09:16:54.716Z,100730.63
2023-05-11T09:19:21.924Z,100737.30
2023-05-11T09:21:48.539Z,100733.34
2023-05-11T09:24:15.154Z,100731.19
2023-05-11T09:26:41.918Z,100729.77
2023-05-11T09:29:08.575Z,100729.83
2023-05-11T09:31:42.916Z,100723.92
2023-05-11T09:34:16.688Z,100724.61
2023-05-11T09:36:44.416Z,100719.02
2023-05-11T09:39:15.386Z,100713.77
2023-05-11T09:41:42.726Z,100709.48
2023-05-11T09:44:13.775Z,100709.98
2023-05-11T09:46:41.729Z,100707.24
2023-05-11T09:49:08.812Z,100709.77
2023-05-11T09:51:40.687Z,100704.90
2023-05-11T09:54:18.511Z,100703.83
2023-05-11T09:56:49.039Z,100702.31
2023-05-11T09:59:17.538Z,100700.09
2023-05-11T10:01:44.351Z,100700.90
2023-05-11T10:04:22.090Z,100700.46
2023-05-11T10:06:53.888Z,100701.80
2023-05-11T10:09:24.448Z,100702.34
2023-05-11T10:11:51.085Z,100697.33
2023-05-11T10:14:17.829Z,100695.69
2023-05-11T10:16:44.556Z,100694.13
2023-05-11T10:19:11.680Z,100689.24
2023-05-11T10:21:39.882Z,100687.96
2023-05-11T10:24:07.669Z,100688.89
2023-05-11T10:26:34.446Z,100682.64
2023-05-11T10:29:01.412Z,100679.94
2023-05-11T10:31:29.124Z,100676.85
2023-05-11T10:33:57.246Z,100670.32
2023-05-11T10:36:24.307Z,100669.97
2023-05-11T10:38:51.412Z,100671.90
2023-05-11T10:41:41.441Z,100667.86
2023-05-11T10:44:20.305Z,100661.60
2023-05-11T10:47:12.142Z,100658.73
2023-05-11T10:49:49.404Z,100656.81
2023-05-11T10:52:55.835Z,100648.38
2023-05-11T10:55:38.657Z,100645.54
2023-05-11T10:58:10.895Z,100649.27
2023-05-11T11:00:55.916Z,100654.16
2023-05-11T11:03:22.629Z,100650.73
2023-05-11T11:05:49.286Z,100645.69
2023-05-11T11:08:16.110Z,100645.20
2023-05-11T11:10:46.537Z,100645.20
2023-05-11T11:13:14.050Z,100639.95
2023-05-11T11:15:56.756Z,100642.55
2023-05-11T11:18:24.219Z,100647.35
2023-05-11T11:20:52.931Z,100643.34
2023-05-11T11:23:44.923Z,100641.59
2023-05-11T11:26:15.326Z,100639.56
2023-05-11T11:28:54.417Z,100639.48
2023-05-11T11:31:34.436Z,100635.73
2023-05-11T11:34:29.477Z,100636.14
2023-05-11T11:36:56.087Z,100636.97
2023-05-11T11:39:22.881Z,100638.47
2023-05-11T11:42:02.868Z,100638.46
2023-05-11T11:44:29.662Z,100641.86
2023-05-11T11:47:15.689Z,100640.46
2023-05-11T11:49:43.959Z,100634.91
2023-05-11T11:52:14.589Z,100631.99
2023-05-11T11:54:43.856Z,100630.80
2023-05-11T11:57:49.507Z,100626.49
2023-05-11T12:00:16.407Z,100627.16
2023-05-11T12:02:44.186Z,100622.17
2023-05-11T12:05:19.016Z,100620.23
2023-05-11T12:07:47.206Z,100615.81
2023-05-11T12:10:14.348Z,100608.15
2023-05-11T12:12:45.106Z,100607.02
2023-05-11T12:15:25.925Z,100603.92
2023-05-11T12:17:52.603Z,100602.95
2023-05-11T12:20:19.849Z,100596.69
2023-05-11T12:22:48.933Z,100598.70
2023-05-11T12:25:18.101Z,100598.54
2023-05-11T12:27:55.465Z,100598.77
2023-05-11T12:30:26.734Z,100600.63
2023-05-11T12:35:25.235Z,100600.92
2023-05-11T12:37:52.037Z,100597.69
2023-05-11T12:40:19.022Z,100599.80
2023-05-11T12:42:59.299Z,100603.76
2023-05-11T12:45:26.626Z,100606.21
2023-05-11T12:47:55.734Z,100602.61
2023-05-11T12:50:22.541Z,100599.74
2023-05-11T12:52:50.422Z,100597.73
2023-05-11T12:55:28.538Z,100590.73
2023-05-11T12:57:58.415Z,100591.36
2023-05-11T13:00:25.606Z,100592.19
2023-05-11T13:02:53.700Z,100590.06
2023-05-11T13:05:24.957Z,100590.80
2023-05-11T13:08:04.853Z,100583.87
2023-05-11T13:10:32.222Z,100584.04
2023-05-11T13:12:59.495Z,100585.89
2023-05-11T13:15:28.513Z,100581.18
2023-05-11T13:17:57.155Z,100580.21
2023-05-11T13:20:33.514Z,100581.64
2023-05-11T13:23:10.114Z,100579.34
2023-05-11T13:25:45.955Z,100583.66
2023-05-11T13:28:14.481Z,100585.66
2023-05-11T13:30:41.592Z,100582.54
2023-05-11T13:33:08.333Z,100585.52
2023-05-11T13:35:39.187Z,100583.61
2023-05-11T13:38:05.860Z,100580.70
2023-05-11T13:40:32.531Z,100577.30
2023-05-11T13:43:00.405Z,100578.73
2023-05-11T13:45:27.369Z,100577.54
2023-05-11T13:47:55.461Z,100575.38
2023-05-11T13:50:26.188Z,100576.24
2023-05-11T13:52:53.305Z,100573.23
2023-05-11T13:55:21.108Z,100574.06
2023-05-11T13:57:48.340Z,100575.02
2023-05-11T14:00:16.050Z,100575.54
2023-05-11T14:02:43.562Z,100570.56
2023-05-11T14:05:10.287Z,100570.39
2023-05-11T14:07:47.171Z,100566.58
2023-05-11T14:10:16.350Z,100565.48
2023-05-11T14:12:43.294Z,100558.87
2023-05-11T14:15:10.372Z,100558.36
2023-05-11T14:17:37.229Z,100559.14
2023-05-11T14:20:05.311Z,100556.75
2023-05-11T14:22:31.977Z,100558.40
2023-05-11T14:24:58.666Z,100555.83
2023-05-11T14:27:25.297Z,100554.54
2023-05-11T14:29:52.330Z,100552.58
2023-05-11T14:32:19.506Z,100550.16
2023-05-11T14:34:46.835Z,100550.96
2023-05-11T14:37:13.486Z,100550.30
2023-05-11T14:39:41.072Z,100551.77
2023-05-11T14:42:08.416Z,100544.08
2023-05-11T14:44:35.178Z,100546.33
2023-05-11T14:47:01.875Z,100545.54
2023-05-11T14:49:28.878Z,100547.81
2023-05-11T14:51:56.712Z,100546.81
2023-05-11T14:54:23.496Z,100544.25
2023-05-11T14:56:54.172Z,100542.66
2023-05-11T14:59:24.432Z,100542.99
2023-05-11T15:01:51.099Z,100542.05
2023-05-11T15:04:18.715Z,100543.80
2023-05-11T15:06:45.410Z,100542.59
2023-05-11T15:09:12.136Z,100540.40
2023-05-11T15:11:38.743Z,100541.33
2023-05-11T15:14:06.409Z,100540.35
2023-05-11T15:16:33.085Z,100541.14
2023-05-11T15:19:00.023Z,100539.95
2023-05-11T15:21:27.270Z,100535.73
2023-05-11T15:23:54.448Z,100533.95
2023-05-11T15:26:22.384Z,100534.67
2023-05-11T15:28:49.087Z,100531.89
2023-05-11T15:31:15.956Z,100532.41
2023-05-11T15:33:43.116Z,100530.92
2023-05-11T15:36:13.856Z,100531.65
2023-05-11T15:38:41.177Z,100530.40
2023-05-11T15:41:07.946Z,100531.98
2023-05-11T15:43:35.164Z,100533.63
2023-05-11T15:46:03.681Z,100532.94
2023-05-11T15:48:30.568Z,100533.51
2023-05-11T15:50:59.205Z,100532.63
2023-05-11T15:53:26.066Z,100533.47
2023-05-11T15:55:55.555Z,100534.09
2023-05-11T15:58:22.942Z,100535.70
2023-05-11T16:00:49.837Z,100535.05
2023-05-11T16:03:16.984Z,100534.26
2023-05-11T16:05:44.745Z,100535.98
2023-05-11T16:08:11.443Z,100536.54
2023-05-11T16:10:38.464Z,100540.22
2023-05-11T16:13:05.312Z,100537.17
2023-05-11T16:15:32.115Z,100535.23
2023-05-11T16:17:58.919Z,100536.94
2023-05-11T16:20:27.127Z,100539.44
2023-05-11T16:22:53.749Z,100541.21
2023-05-11T16:25:21.058Z,100544.34
2023-05-11T16:27:47.664Z,100542.20
2023-05-11T16:30:22.393Z,100540.79
2023-05-11T16:32:51.596Z,100543.80
2023-05-11T16:35:18.446Z,100544.98
2023-05-11T16:37:46.806Z,100545.48
2023-05-11T16:40:13.605Z,100547.46
2023-05-11T16:42:40.206Z,100545.23
2023-05-11T16:45:07.483Z,100546.95
2023-05-11T16:47:34.199Z,100550.71
2023-05-11T16:50:00.984Z,100549.91
2023-05-11T16:52:27.723Z,100549.81
2023-05-11T16:54:55.320Z,100551.04
2023-05-11T16:57:25.225Z,100550.91
2023-05-11T16:59:52.098Z,100553.82
2023-05-11T17:02:20.022Z,100556.48
2023-05-11T17:06:04.040Z,100556.17
2023-05-11T17:08:30.670Z,100555.78
2023-05-11T17:10:57.231Z,100554.73
2023-05-11T17:13:23.971Z,100557.92
2023-05-11T17:15:51.655Z,100560.30
2023-05-11T17:18:18.351Z,100557.33
2023-05-11T17:20:45.096Z,100559.09
2023-05-11T17:23:11.746Z,100560.30
2023-05-11T17:25:38.387Z,100565.18
2023-05-11T17:28:05.150Z,100565.65
2023-05-11T17:30:47.334Z,100565.06
2023-05-11T17:33:14.606Z,100570.17
2023-05-11T17:35:41.422Z,100574.77
2023-05-11T17:38:08.007Z,100574.51
2023-05-11T17:40:34.754Z,100575.64
2023-05-11T17:43:01.868Z,100581.14
2023-05-11T17:45:29.141Z,100581.79
2023-05-11T17:47:55.954Z,100584.38
2023-05-11T17:50:23.477Z,100585.55
2023-05-11T17:52:51.168Z,100593.80
2023-05-11T17:55:18.522Z,100589.46
2023-05-11T17:57:45.414Z,100591.27
2023-05-11T18:00:13.117Z,100593.30
2023-05-11T18:02:39.984Z,100596.06
2023-05-11T18:05:07.222Z,100598.10
2023-05-11T18:07:33.953Z,100598.72
2023-05-11T18:10:00.580Z,100597.91
2023-05-11T18:12:27.408Z,100598.48
2023-05-11T18:14:54.042Z,100598.64
2023-05-11T18:17:20.962Z,100599.20
2023-05-11T18:19:47.554Z,100605.70
2023-05-11T18:22:14.157Z,100605.00
2023-05-11T18:24:40.841Z,100603.80
2023-05-11T18:27:07.461Z,100605.35
2023-05-11T18:29:34.042Z,100606.20
2023-05-11T18:32:56.192Z,100609.17
2023-05-11T18:35:22.912Z,100608.73
2023-05-11T18:37:49.837Z,100611.80
2023-05-11T18:40:16.983Z,100619.27
2023-05-11T18:42:44.427Z,100621.96
2023-05-11T18:45:11.247Z,100622.76
2023-05-11T18:47:38.218Z,100623.60
2023-05-11T18:50:05.958Z,100624.90
2023-05-11T18:52:32.701Z,100626.70
2023-05-11T18:54:59.486Z,100623.95
2023-05-11T18:57:26.086Z,100624.68
2023-05-11T18:59:52.870Z,100626.54
2023-05-11T19:02:19.761Z,100625.95
2023-05-11T19:04:46.574Z,100624.80
2023-05-11T19:07:13.180Z,100622.90
2023-05-11T19:09:39.948Z,100624.20
2023-05-11T19:12:07.383Z,100620.54
2023-05-11T19:14:34.917Z,100619.20
2023-05-11T19:17:02.351Z,100620.33
2023-05-11T19:19:29.306Z,100621.60
2023-05-11T19:21:55.964Z,100621.20
2023-05-11T19:24:22.741Z,100621.23
2023-05-11T19:26:58.914Z,100618.98
2023-05-11T19:29:33.064Z,100613.70
2023-05-11T19:31:59.753Z,100617.88
2023-05-11T19:34:26.482Z,100622.96
2023-05-11T19:36:53.078Z,100623.22
2023-05-11T19:39:19.750Z,100624.39
2023-05-11T19:41:46.424Z,100627.94
2023-05-11T19:44:13.041Z,100624.05
2023-05-11T19:46:45.830Z,100626.80
2023-05-11T19:49:13.836Z,100628.37
2023-05-11T19:51:40.543Z,100625.65
2023-05-11T19:54:07.206Z,100626.66
2023-05-11T19:56:34.009Z,100626.02
2023-05-11T19:59:01.295Z,100626.98
2023-05-11T20:01:28.300Z,100622.36
2023-05-11T20:03:55.512Z,100623.43
2023-05-11T20:06:22.559Z,100623.52
2023-05-11T20:08:49.136Z,100624.74
2023-05-11T20:11:15.764Z,100624.55
2023-05-11T20:13:43.998Z,100624.48
2023-05-11T20:16:10.868Z,100624.14
2023-05-11T20:18:37.605Z,100628.38
2023-05-11T20:21:04.383Z,100628.55
2023-05-11T20:23:31.071Z,100625.40
2023-05-11T20:25:57.681Z,100627.23
2023-05-11T20:28:27.310Z,100624.80
2023-05-11T20:30:57.195Z,100621.38
2023-05-11T20:35:53.751Z,100622.62
2023-05-11T20:38:20.633Z,100622.55
2023-05-11T20:40:47.241Z,100623.98
2023-05-11T20:43:14.934Z,100625.00
2023-05-11T20:45:42.331Z,100630.70
2023-05-11T20:48:09.151Z,100628.38
2023-05-11T20:50:35.943Z,100627.05
2023-05-11T20:53:02.604Z,100627.50
2023-05-11T20:55:29.203Z,100628.15
2023-05-11T20:57:55.819Z,100626.95
2023-05-11T21:00:23.104Z,100627.55
2023-05-11T21:02:50.020Z,100632.66
2023-05-11T21:05:17.040Z,100636.59
2023-05-11T21:09:30.729Z,100638.33
2023-05-11T21:11:57.380Z,100641.17
2023-05-11T21:14:23.970Z,100642.89
2023-05-11T21:16:50.630Z,100640.71
2023-05-11T21:19:18.490Z,100640.30
2023-05-11T21:21:45.192Z,100641.47
2023-05-11T21:24:13.989Z,100643.31
2023-05-11T21:26:40.823Z,100643.65
2023-05-11T21:29:07.438Z,100643.09
2023-05-11T21:31:34.081Z,100644.73
2023-05-11T21:34:00.781Z,100646.24
2023-05-11T21:36:28.337Z,100646.33
2023-05-11T21:38:55.157Z,100645.71
2023-05-11T21:41:22.563Z,100649.11
2023-05-11T21:43:49.233Z,100644.61
2023-05-11T21:46:15.967Z,100649.61
2023-05-11T21:48:42.950Z,100646.31
2023-05-11T21:51:09.555Z,100652.51
2023-05-11T21:53:36.206Z,100654.21
2023-05-11T21:56:02.955Z,100657.30
2023-05-11T21:58:29.565Z,100656.69
2023-05-11T22:00:57.367Z,100653.21
2023-05-11T22:03:24.290Z,100655.11
2023-05-11T22:05:51.256Z,100655.59
2023-05-11T22:08:18.026Z,100656.32
2023-05-11T22:10:44.757Z,100655.86
2023-05-11T22:13:11.368Z,100659.59
2023-05-11T22:15:38.409Z,100657.55
2023-05-11T22:18:05.208Z,100661.90
2023-05-11T22:20:32.027Z,100659.36
2023-05-11T22:22:59.431Z,100659.15
2023-05-11T22:25:27.741Z,100661.55
2023-05-11T22:27:54.514Z,100662.59
2023-05-11T22:30:21.256Z,100662.80
2023-05-11T22:32:48.285Z,100663.92
2023-05-11T22:35:15.164Z,100660.18
2023-05-11T22:37:41.863Z,100658.55
2023-05-11T22:40:09.628Z,100660.41
2023-05-11T22:42:36.233Z,100664.38
2023-05-11T22:45:02.869Z,100661.23
2023-05-11T22:47:29.614Z,100661.78
2023-05-11T22:49:56.419Z,100661.13
2023-05-11T22:52:23.061Z,100663.40
2023-05-11T22:54:54.693Z,100664.08
2023-05-11T22:57:24.061Z,100665.54
2023-05-11T22:59:50.816Z,100668.38
2023-05-11T23:02:17.512Z,100668.41
2023-05-11T23:04:44.553Z,100666.66
2023-05-11T23:07:13.082Z,100664.35
2023-05-11T23:09:40.037Z,100665.38
2023-05-11T23:12:07.629Z,100660.20
2023-05-11T23:14:34.173Z,100660.41
2023-05-11T23:17:00.834Z,100659.33
2023-05-11T23:19:27.444Z,100654.36
2023-05-11T23:21:54.062Z,100654.34
2023-05-11T23:24:21.296Z,100653.02
2023-05-11T23:26:47.879Z,100649.55
2023-05-11T23:29:14.665Z,100651.30
2023-05-11T23:31:41.361Z,100650.07
2023-05-11T23:34:08.665Z,100650.91
2023-05-11T23:36:35.291Z,100649.36
2023-05-11T23:39:01.929Z,100646.94
2023-05-11T23:41:28.533Z,100642.44
2023-05-11T23:43:55.124Z,100642.41
2023-05-11T23:46:21.780Z,100643.98
2023-05-11T23:48:48.707Z,100644.73
2023-05-11T23:51:16.542Z,100647.40
2023-05-11T23:53:43.143Z,100650.71
2023-05-11T23:56:09.942Z,100654.08
2023-05-11T23:58:36.610Z,100653.45
